Pagina principale
METAR-TAF:

METAR-TAF

Aeroporti :

Tolone, Francia

Aeroporto di Tolone-Hyères

latitudine: 43-06N, longitudine: 006-09E, altezza: 3 m

Osservazione

Il bollettino è stato emesso 30 minuti fa, alle 11:30 UTC
Vento 7 kt da sud-ovest, variando fra sud e ovest/sud-ovest
Temperature 17°C
Umidità 34%
Pressione 1013 hPa
Visibilità 10 km o più
nessuna nube inferiore a 1500 m e nessun cumulonembo

METAR: LFTH 191130Z AUTO 22007KT 190V250 CAVOK 17/01 Q1013 TEMPO 33015G25KT

Ora: 13:00 (12:00 UTC)

Previsione

Il bollettino è stato emesso 4 ore e 0 minuti fa, alle 08:00 UTC
Previsione valida dal 19 alle 09 UTC al 20 alle 09 UTC
Vento 8 kt da nord/nord-ovest
Visibilità 10 km o più
nessuna nube inferiore a 1500 m e nessun cumulonembo
Temporaneamente
dal 19 alle 11 UTC al 19 alle 20 UTC
Vento 15 kt da nord/nord-ovest con raffiche fino a 25 kt

TAF: LFTH 190800Z 1909/2009 33008KT CAVOK TEMPO 1911/1920 33015G25KT

Osservazioni e previsioni meteorologiche di più di 4000 aeroporti (messaggi METAR e TAF).

Le stazioni disponibili sono rappresentate dai dischi gialli e rossi sulla carta.

Puntare il mouse per vedere il nome della stazione.

Clicca sopra per visualizzare le osservazioni e previsioni meteorologiche.

Per cambiare la mappa : fare clic sui pulsanti verdi con una croce nera per ingrandire, il pulsante verde con un trattino per diminuire, o sulla freccia verde per le mappe adiacenti.


METAR-TAF: